Phoenix, Arizona
Traffic Map
Current Weather Conditions
Phoenix, Arizona
Overcast
Overcast
63°
Feels Like: 63°
Wind Chill: 63° Ceiling: 6000
Heat Index: 63° Visibility: 10mi
Dew Point: 40° Wind: 3mph
Humidity: 43% Direction: ° ()
Pressure: 29.88in Gusts: 0mph
Raw Report DataKPHX 272051Z VRB03KT 10SM BKN060 OVC080 17/04 A2988 RMK AO2 SLP111 SHRA DSNT W-NW T01720044 58027
Traffic Incident Summary
Active as of:
Severity:
Category:
InformationThere was an issue retrieving the traffic information for this location. Please try a different location or try again shortly.
Advertisements
Track Severe Weather on mobile